sensor_id;sensor_type;location;lat;lon;timestamp;pressure;altitude;pressure_sealevel;temperature;humidity
77027;BME280;65956;52.986;17.490;2023-05-16T00:01:33;99229.84;;;11.20;90.33
77027;BME280;65956;52.986;17.490;2023-05-16T00:04:00;99230.34;;;11.18;90.47
77027;BME280;65956;52.986;17.490;2023-05-16T00:06:28;99234.16;;;11.17;90.45
77027;BME280;65956;52.986;17.490;2023-05-16T00:08:54;99235.20;;;11.16;90.60
77027;BME280;65956;52.986;17.490;2023-05-16T00:11:20;99240.45;;;11.15;90.52
77027;BME280;65956;52.986;17.490;2023-05-16T00:13:46;99238.46;;;11.14;90.47
77027;BME280;65956;52.986;17.490;2023-05-16T00:16:13;99238.23;;;11.11;90.54
77027;BME280;65956;52.986;17.490;2023-05-16T00:18:39;99243.02;;;11.11;90.52
77027;BME280;65956;52.986;17.490;2023-05-16T00:21:05;99239.51;;;11.11;90.50
77027;BME280;65956;52.986;17.490;2023-05-16T00:23:32;99240.23;;;11.09;90.37
77027;BME280;65956;52.986;17.490;2023-05-16T00:25:58;99242.55;;;11.09;90.35
77027;BME280;65956;52.986;17.490;2023-05-16T00:28:23;99248.77;;;11.09;90.17
77027;BME280;65956;52.986;17.490;2023-05-16T00:30:50;99246.52;;;11.06;90.30
77027;BME280;65956;52.986;17.490;2023-05-16T00:33:16;99254.89;;;11.06;90.24
77027;BME280;65956;52.986;17.490;2023-05-16T00:35:41;99256.96;;;11.05;90.10
77027;BME280;65956;52.986;17.490;2023-05-16T00:38:07;99251.86;;;11.02;90.19
77027;BME280;65956;52.986;17.490;2023-05-16T00:40:33;99253.33;;;11.00;90.17
77027;BME280;65956;52.986;17.490;2023-05-16T00:42:59;99252.60;;;10.99;90.03
77027;BME280;65956;52.986;17.490;2023-05-16T00:45:27;99249.09;;;10.97;90.06
77027;BME280;65956;52.986;17.490;2023-05-16T00:47:53;99251.17;;;10.95;90.14
77027;BME280;65956;52.986;17.490;2023-05-16T00:50:19;99253.56;;;10.94;90.18
77027;BME280;65956;52.986;17.490;2023-05-16T00:52:46;99257.30;;;10.94;90.25
77027;BME280;65956;52.986;17.490;2023-05-16T00:55:13;99256.67;;;10.95;90.17
77027;BME280;65956;52.986;17.490;2023-05-16T00:57:40;99255.80;;;10.94;90.21
77027;BME280;65956;52.986;17.490;2023-05-16T01:00:07;99259.86;;;10.94;90.23
77027;BME280;65956;52.986;17.490;2023-05-16T01:02:37;99259.45;;;10.94;90.26
77027;BME280;65956;52.986;17.490;2023-05-16T01:05:04;99261.53;;;10.95;90.23
77027;BME280;65956;52.986;17.490;2023-05-16T01:07:30;99269.81;;;10.95;90.16
77027;BME280;65956;52.986;17.490;2023-05-16T01:09:57;99264.88;;;10.96;90.12
77027;BME280;65956;52.986;17.490;2023-05-16T01:13:26;99266.14;;;10.97;90.15
77027;BME280;65956;52.986;17.490;2023-05-16T01:15:41;99268.36;;;10.97;90.19
77027;BME280;65956;52.986;17.490;2023-05-16T01:20:59;99269.95;;;10.98;89.93
77027;BME280;65956;52.986;17.490;2023-05-16T01:28:49;99273.79;;;11.01;89.46
77027;BME280;65956;52.986;17.490;2023-05-16T01:31:17;99275.52;;;11.02;89.39
77027;BME280;65956;52.986;17.490;2023-05-16T01:33:43;99275.29;;;11.02;89.29
77027;BME280;65956;52.986;17.490;2023-05-16T01:36:19;99277.76;;;11.00;89.28
77027;BME280;65956;52.986;17.490;2023-05-16T01:38:58;99293.36;;;11.02;89.21
77027;BME280;65956;52.986;17.490;2023-05-16T01:41:42;99293.69;;;11.02;89.05
77027;BME280;65956;52.986;17.490;2023-05-16T01:44:28;99300.78;;;11.03;88.95
77027;BME280;65956;52.986;17.490;2023-05-16T01:46:59;99305.33;;;11.04;89.01
77027;BME280;65956;52.986;17.490;2023-05-16T01:49:34;99306.02;;;11.02;88.72
77027;BME280;65956;52.986;17.490;2023-05-16T01:52:05;99318.23;;;11.03;88.47
77027;BME280;65956;52.986;17.490;2023-05-16T01:54:36;99320.77;;;11.04;88.36
77027;BME280;65956;52.986;17.490;2023-05-16T01:57:03;99313.60;;;11.03;88.57
77027;BME280;65956;52.986;17.490;2023-05-16T01:59:30;99313.36;;;11.02;88.65
77027;BME280;65956;52.986;17.490;2023-05-16T02:01:56;99316.33;;;11.01;88.60
77027;BME280;65956;52.986;17.490;2023-05-16T02:04:22;99331.53;;;11.00;88.57
77027;BME280;65956;52.986;17.490;2023-05-16T02:06:49;99328.90;;;10.99;88.67
77027;BME280;65956;52.986;17.490;2023-05-16T02:09:16;99336.23;;;10.99;88.68
77027;BME280;65956;52.986;17.490;2023-05-16T02:11:42;99337.41;;;10.98;88.61
77027;BME280;65956;52.986;17.490;2023-05-16T02:14:08;99341.55;;;10.98;88.61
77027;BME280;65956;52.986;17.490;2023-05-16T02:16:35;99339.88;;;10.97;88.55
77027;BME280;65956;52.986;17.490;2023-05-16T02:19:01;99344.34;;;10.97;88.63
77027;BME280;65956;52.986;17.490;2023-05-16T02:21:27;99346.17;;;10.97;88.71
77027;BME280;65956;52.986;17.490;2023-05-16T02:23:53;99349.20;;;10.97;88.67
77027;BME280;65956;52.986;17.490;2023-05-16T02:26:18;99360.84;;;10.96;88.65
77027;BME280;65956;52.986;17.490;2023-05-16T02:28:45;99363.14;;;10.94;88.66
77027;BME280;65956;52.986;17.490;2023-05-16T02:31:24;99371.10;;;10.93;88.68
77027;BME280;65956;52.986;17.490;2023-05-16T02:33:50;99377.47;;;10.94;88.76
77027;BME280;65956;52.986;17.490;2023-05-16T02:36:16;99382.41;;;10.94;88.72
77027;BME280;65956;52.986;17.490;2023-05-16T02:38:42;99385.52;;;10.93;88.73
77027;BME280;65956;52.986;17.490;2023-05-16T02:41:08;99380.74;;;10.95;88.52
77027;BME280;65956;52.986;17.490;2023-05-16T02:43:34;99386.64;;;10.96;88.67
77027;BME280;65956;52.986;17.490;2023-05-16T02:46:00;99384.26;;;10.96;88.61
77027;BME280;65956;52.986;17.490;2023-05-16T02:48:26;99392.61;;;10.95;88.52
77027;BME280;65956;52.986;17.490;2023-05-16T02:50:52;99396.90;;;10.97;88.62
77027;BME280;65956;52.986;17.490;2023-05-16T02:53:17;99400.80;;;10.97;88.63
77027;BME280;65956;52.986;17.490;2023-05-16T02:55:43;99400.65;;;10.97;88.60
77027;BME280;65956;52.986;17.490;2023-05-16T02:58:10;99407.90;;;10.96;88.68
77027;BME280;65956;52.986;17.490;2023-05-16T03:00:36;99412.61;;;10.96;88.71
77027;BME280;65956;52.986;17.490;2023-05-16T03:03:03;99410.94;;;10.96;88.71
77027;BME280;65956;52.986;17.490;2023-05-16T03:05:29;99410.38;;;10.96;88.78
77027;BME280;65956;52.986;17.490;2023-05-16T03:07:55;99411.10;;;10.96;88.72
77027;BME280;65956;52.986;17.490;2023-05-16T03:10:21;99412.36;;;10.96;88.71
77027;BME280;65956;52.986;17.490;2023-05-16T03:12:47;99413.17;;;10.96;88.79
77027;BME280;65956;52.986;17.490;2023-05-16T03:15:13;99417.30;;;10.97;88.68
77027;BME280;65956;52.986;17.490;2023-05-16T03:17:39;99421.76;;;10.98;88.67
77027;BME280;65956;52.986;17.490;2023-05-16T03:20:06;99425.19;;;10.99;88.67
77027;BME280;65956;52.986;17.490;2023-05-16T03:22:33;99424.64;;;11.01;88.55
77027;BME280;65956;52.986;17.490;2023-05-16T03:24:59;99424.09;;;11.00;88.33
77027;BME280;65956;52.986;17.490;2023-05-16T03:27:25;99425.52;;;10.99;88.20
77027;BME280;65956;52.986;17.490;2023-05-16T03:29:51;99429.89;;;10.99;88.05
77027;BME280;65956;52.986;17.490;2023-05-16T03:32:17;99436.49;;;10.98;87.92
77027;BME280;65956;52.986;17.490;2023-05-16T03:34:43;99445.58;;;10.99;88.07
77027;BME280;65956;52.986;17.490;2023-05-16T03:37:09;99452.67;;;11.02;87.78
77027;BME280;65956;52.986;17.490;2023-05-16T03:39:35;99459.99;;;11.06;87.80
77027;BME280;65956;52.986;17.490;2023-05-16T03:42:01;99462.80;;;11.08;87.75
77027;BME280;65956;52.986;17.490;2023-05-16T03:44:27;99464.54;;;11.11;87.67
77027;BME280;65956;52.986;17.490;2023-05-16T03:46:53;99464.55;;;11.12;87.65
77027;BME280;65956;52.986;17.490;2023-05-16T03:49:24;99471.33;;;11.13;87.53
77027;BME280;65956;52.986;17.490;2023-05-16T03:51:52;99472.05;;;11.14;87.33
77027;BME280;65956;52.986;17.490;2023-05-16T03:54:17;99483.13;;;11.17;87.42
77027;BME280;65956;52.986;17.490;2023-05-16T03:56:43;99485.12;;;11.18;87.32
77027;BME280;65956;52.986;17.490;2023-05-16T03:59:09;99480.11;;;11.21;87.18
77027;BME280;65956;52.986;17.490;2023-05-16T04:01:35;99477.70;;;11.24;87.15
77027;BME280;65956;52.986;17.490;2023-05-16T04:04:01;99480.83;;;11.28;87.01
77027;BME280;65956;52.986;17.490;2023-05-16T04:06:27;99482.98;;;11.30;86.69
77027;BME280;65956;52.986;17.490;2023-05-16T04:08:54;99484.25;;;11.33;86.42
77027;BME280;65956;52.986;17.490;2023-05-16T04:11:20;99490.63;;;11.35;85.97
77027;BME280;65956;52.986;17.490;2023-05-16T04:13:46;99494.68;;;11.37;85.83
77027;BME280;65956;52.986;17.490;2023-05-16T04:16:12;99494.29;;;11.40;85.70
77027;BME280;65956;52.986;17.490;2023-05-16T04:18:38;99503.71;;;11.43;85.61
77027;BME280;65956;52.986;17.490;2023-05-16T04:21:04;99509.85;;;11.47;85.48
77027;BME280;65956;52.986;17.490;2023-05-16T04:23:30;99517.41;;;11.50;85.50
77027;BME280;65956;52.986;17.490;2023-05-16T04:25:56;99518.29;;;11.51;85.62
77027;BME280;65956;52.986;17.490;2023-05-16T04:28:22;99525.15;;;11.52;85.48
77027;BME280;65956;52.986;17.490;2023-05-16T04:30:48;99536.39;;;11.55;85.53
77027;BME280;65956;52.986;17.490;2023-05-16T04:33:15;99537.34;;;11.57;85.37
77027;BME280;65956;52.986;17.490;2023-05-16T04:35:41;99543.48;;;11.59;85.44
77027;BME280;65956;52.986;17.490;2023-05-16T04:38:07;99546.75;;;11.62;85.39
77027;BME280;65956;52.986;17.490;2023-05-16T04:40:33;99551.95;;;11.65;85.51
77027;BME280;65956;52.986;17.490;2023-05-16T04:43:00;99559.66;;;11.67;85.28
77027;BME280;65956;52.986;17.490;2023-05-16T04:45:25;99560.48;;;11.68;85.49
77027;BME280;65956;52.986;17.490;2023-05-16T04:47:51;99561.83;;;11.68;85.54
77027;BME280;65956;52.986;17.490;2023-05-16T04:50:17;99558.23;;;11.67;85.45
77027;BME280;65956;52.986;17.490;2023-05-16T04:52:43;99558.24;;;11.69;85.50
77027;BME280;65956;52.986;17.490;2023-05-16T04:55:10;99564.34;;;11.74;85.35
77027;BME280;65956;52.986;17.490;2023-05-16T04:57:35;99566.23;;;11.79;85.30
77027;BME280;65956;52.986;17.490;2023-05-16T05:00:02;99572.47;;;11.86;85.05
77027;BME280;65956;52.986;17.490;2023-05-16T05:02:30;99579.64;;;11.94;84.76
77027;BME280;65956;52.986;17.490;2023-05-16T05:04:56;99571.59;;;12.04;84.47
77027;BME280;65956;52.986;17.490;2023-05-16T05:07:22;99573.81;;;12.05;84.23
77027;BME280;65956;52.986;17.490;2023-05-16T05:09:52;99583.55;;;12.10;84.16
77027;BME280;65956;52.986;17.490;2023-05-16T05:12:21;99587.85;;;12.13;84.17
77027;BME280;65956;52.986;17.490;2023-05-16T05:14:47;99596.95;;;12.17;84.06
77027;BME280;65956;52.986;17.490;2023-05-16T05:17:13;99601.48;;;12.26;83.97
77027;BME280;65956;52.986;17.490;2023-05-16T05:19:39;99604.90;;;12.34;83.98
77027;BME280;65956;52.986;17.490;2023-05-16T05:22:05;99614.31;;;12.40;83.44
77027;BME280;65956;52.986;17.490;2023-05-16T05:24:31;99618.05;;;12.46;82.68
77027;BME280;65956;52.986;17.490;2023-05-16T05:26:57;99626.18;;;12.59;82.82
77027;BME280;65956;52.986;17.490;2023-05-16T05:29:23;99631.48;;;12.79;82.64
77027;BME280;65956;52.986;17.490;2023-05-16T05:31:49;99638.89;;;12.83;81.32
77027;BME280;65956;52.986;17.490;2023-05-16T05:34:15;99637.77;;;12.88;80.75
77027;BME280;65956;52.986;17.490;2023-05-16T05:36:41;99632.14;;;12.95;81.00
77027;BME280;65956;52.986;17.490;2023-05-16T05:39:07;99640.05;;;12.98;79.92
77027;BME280;65956;52.986;17.490;2023-05-16T05:41:33;99650.58;;;13.03;80.05
77027;BME280;65956;52.986;17.490;2023-05-16T05:43:59;99653.21;;;13.04;80.40
77027;BME280;65956;52.986;17.490;2023-05-16T05:46:25;99659.11;;;13.05;79.94
77027;BME280;65956;52.986;17.490;2023-05-16T05:48:51;99653.27;;;13.06;80.14
77027;BME280;65956;52.986;17.490;2023-05-16T05:51:17;99655.35;;;13.10;79.86
77027;BME280;65956;52.986;17.490;2023-05-16T05:53:43;99651.59;;;13.16;79.24
77027;BME280;65956;52.986;17.490;2023-05-16T05:56:10;99657.78;;;13.24;78.73
77027;BME280;65956;52.986;17.490;2023-05-16T05:58:37;99659.92;;;13.32;78.73
77027;BME280;65956;52.986;17.490;2023-05-16T06:01:04;99668.16;;;13.47;78.93
77027;BME280;65956;52.986;17.490;2023-05-16T06:03:30;99672.05;;;13.52;78.14
77027;BME280;65956;52.986;17.490;2023-05-16T06:05:56;99666.59;;;13.55;78.42
77027;BME280;65956;52.986;17.490;2023-05-16T06:08:22;99674.08;;;13.61;78.27
77027;BME280;65956;52.986;17.490;2023-05-16T06:10:48;99672.03;;;13.71;78.16
77027;BME280;65956;52.986;17.490;2023-05-16T06:13:14;99666.76;;;13.83;77.99
77027;BME280;65956;52.986;17.490;2023-05-16T06:15:40;99675.13;;;13.87;77.41
77027;BME280;65956;52.986;17.490;2023-05-16T06:18:06;99669.89;;;13.79;77.55
77027;BME280;65956;52.986;17.490;2023-05-16T06:20:32;99669.02;;;13.81;77.67
77027;BME280;65956;52.986;17.490;2023-05-16T06:22:58;99676.52;;;13.94;77.37
77027;BME280;65956;52.986;17.490;2023-05-16T06:25:24;99681.16;;;14.04;75.33
77027;BME280;65956;52.986;17.490;2023-05-16T06:27:50;99684.64;;;14.11;75.44
77027;BME280;65956;52.986;17.490;2023-05-16T06:30:16;99688.71;;;14.23;75.53
77027;BME280;65956;52.986;17.490;2023-05-16T06:32:42;99703.95;;;14.31;75.00
77027;BME280;65956;52.986;17.490;2023-05-16T06:35:08;99706.95;;;14.41;74.98
77027;BME280;65956;52.986;17.490;2023-05-16T06:37:34;99709.90;;;14.40;74.14
77027;BME280;65956;52.986;17.490;2023-05-16T06:40:00;99720.05;;;14.30;73.68
77027;BME280;65956;52.986;17.490;2023-05-16T06:42:27;99724.71;;;14.17;73.95
77027;BME280;65956;52.986;17.490;2023-05-16T06:44:54;99730.85;;;14.08;74.57
77027;BME280;65956;52.986;17.490;2023-05-16T06:47:20;99732.47;;;14.07;75.08
77027;BME280;65956;52.986;17.490;2023-05-16T06:49:46;99731.55;;;14.12;74.64
77027;BME280;65956;52.986;17.490;2023-05-16T06:52:12;99736.81;;;14.28;74.52
77027;BME280;65956;52.986;17.490;2023-05-16T06:54:38;99742.98;;;14.41;73.50
77027;BME280;65956;52.986;17.490;2023-05-16T06:57:04;99745.95;;;14.50;72.86
77027;BME280;65956;52.986;17.490;2023-05-16T06:59:31;99750.78;;;14.58;73.11
77027;BME280;65956;52.986;17.490;2023-05-16T07:01:57;99760.11;;;14.64;73.07
77027;BME280;65956;52.986;17.490;2023-05-16T07:04:23;99756.80;;;14.66;73.48
77027;BME280;65956;52.986;17.490;2023-05-16T07:06:49;99758.30;;;14.69;72.91
77027;BME280;65956;52.986;17.490;2023-05-16T07:09:15;99757.95;;;14.81;72.55
77027;BME280;65956;52.986;17.490;2023-05-16T07:11:41;99757.70;;;14.81;71.53
77027;BME280;65956;52.986;17.490;2023-05-16T07:14:07;99760.79;;;14.78;71.72
77027;BME280;65956;52.986;17.490;2023-05-16T07:16:33;99765.29;;;14.84;72.19
77027;BME280;65956;52.986;17.490;2023-05-16T07:18:59;99767.80;;;14.89;71.32
77027;BME280;65956;52.986;17.490;2023-05-16T07:21:25;99771.38;;;15.01;70.95
77027;BME280;65956;52.986;17.490;2023-05-16T07:23:51;99785.51;;;15.09;69.12
77027;BME280;65956;52.986;17.490;2023-05-16T07:26:17;99778.63;;;15.07;68.76
77027;BME280;65956;52.986;17.490;2023-05-16T07:28:43;99786.02;;;15.14;69.56
77027;BME280;65956;52.986;17.490;2023-05-16T07:31:09;99804.16;;;15.12;68.53
77027;BME280;65956;52.986;17.490;2023-05-16T07:33:35;99816.94;;;15.09;68.51
77027;BME280;65956;52.986;17.490;2023-05-16T07:36:01;99823.65;;;15.12;69.72
77027;BME280;65956;52.986;17.490;2023-05-16T07:38:28;99826.67;;;15.13;69.11
77027;BME280;65956;52.986;17.490;2023-05-16T07:40:53;99838.96;;;15.12;68.93
77027;BME280;65956;52.986;17.490;2023-05-16T07:43:20;99845.35;;;15.05;68.07
77027;BME280;65956;52.986;17.490;2023-05-16T07:45:46;99855.61;;;15.06;68.98
77027;BME280;65956;52.986;17.490;2023-05-16T07:48:12;99869.64;;;15.05;69.26
77027;BME280;65956;52.986;17.490;2023-05-16T07:50:38;99874.62;;;15.06;69.64
77027;BME280;65956;52.986;17.490;2023-05-16T07:53:04;99871.70;;;15.09;69.56
77027;BME280;65956;52.986;17.490;2023-05-16T07:55:30;99874.65;;;15.21;70.54
77027;BME280;65956;52.986;17.490;2023-05-16T07:57:56;99877.54;;;15.28;70.58
77027;BME280;65956;52.986;17.490;2023-05-16T08:00:22;99871.73;;;15.24;69.93
77027;BME280;65956;52.986;17.490;2023-05-16T08:02:48;99870.19;;;15.25;69.60
77027;BME280;65956;52.986;17.490;2023-05-16T08:05:14;99868.29;;;15.39;70.04
77027;BME280;65956;52.986;17.490;2023-05-16T08:07:40;99871.77;;;15.57;68.81
77027;BME280;65956;52.986;17.490;2023-05-16T08:10:06;99873.54;;;15.71;67.69
77027;BME280;65956;52.986;17.490;2023-05-16T08:12:32;99880.25;;;15.82;66.84
77027;BME280;65956;52.986;17.490;2023-05-16T08:14:58;99885.50;;;15.99;66.89
77027;BME280;65956;52.986;17.490;2023-05-16T08:17:24;99886.48;;;16.04;66.59
77027;BME280;65956;52.986;17.490;2023-05-16T08:19:50;99883.77;;;16.03;67.51
77027;BME280;65956;52.986;17.490;2023-05-16T08:22:16;99877.70;;;16.00;66.55
77027;BME280;65956;52.986;17.490;2023-05-16T08:24:42;99877.30;;;15.99;66.04
77027;BME280;65956;52.986;17.490;2023-05-16T08:27:08;99873.15;;;16.05;66.57
77027;BME280;65956;52.986;17.490;2023-05-16T08:29:35;99868.89;;;16.12;66.28
77027;BME280;65956;52.986;17.490;2023-05-16T08:32:01;99868.40;;;16.30;65.85
77027;BME280;65956;52.986;17.490;2023-05-16T08:34:30;99874.85;;;16.23;64.78
77027;BME280;65956;52.986;17.490;2023-05-16T08:36:56;99878.16;;;16.21;65.20
77027;BME280;65956;52.986;17.490;2023-05-16T08:39:22;99884.16;;;16.36;65.39
77027;BME280;65956;52.986;17.490;2023-05-16T08:41:49;99889.90;;;16.46;63.96
77027;BME280;65956;52.986;17.490;2023-05-16T08:44:15;99884.73;;;16.52;63.01
77027;BME280;65956;52.986;17.490;2023-05-16T08:46:50;99877.49;;;16.53;61.92
77027;BME280;65956;52.986;17.490;2023-05-16T08:49:18;99879.24;;;16.54;61.90
77027;BME280;65956;52.986;17.490;2023-05-16T08:51:45;99870.91;;;16.52;61.21
77027;BME280;65956;52.986;17.490;2023-05-16T08:54:13;99861.29;;;16.58;61.14
77027;BME280;65956;52.986;17.490;2023-05-16T08:56:44;99862.02;;;16.69;61.36
77027;BME280;65956;52.986;17.490;2023-05-16T08:59:10;99868.13;;;16.63;60.37
77027;BME280;65956;52.986;17.490;2023-05-16T09:01:39;99868.91;;;16.52;60.79
77027;BME280;65956;52.986;17.490;2023-05-16T09:04:07;99865.07;;;16.57;60.64
77027;BME280;65956;52.986;17.490;2023-05-16T09:06:37;99862.92;;;16.68;60.57
77027;BME280;65956;52.986;17.490;2023-05-16T09:09:04;99852.30;;;16.68;60.43
77027;BME280;65956;52.986;17.490;2023-05-16T09:11:33;99852.27;;;16.70;60.97
77027;BME280;65956;52.986;17.490;2023-05-16T09:13:59;99850.13;;;16.89;61.76
77027;BME280;65956;52.986;17.490;2023-05-16T09:16:25;99852.84;;;17.00;61.09
77027;BME280;65956;52.986;17.490;2023-05-16T09:21:19;99863.52;;;16.96;60.07
77027;BME280;65956;52.986;17.490;2023-05-16T09:23:48;99864.31;;;17.07;59.89
77027;BME280;65956;52.986;17.490;2023-05-16T09:26:14;99871.52;;;17.18;59.71
77027;BME280;65956;52.986;17.490;2023-05-16T09:28:42;99869.63;;;17.35;59.56
77027;BME280;65956;52.986;17.490;2023-05-16T09:31:22;99867.80;;;17.52;60.23
77027;BME280;65956;52.986;17.490;2023-05-16T09:33:52;99875.68;;;17.91;58.85
77027;BME280;65956;52.986;17.490;2023-05-16T09:36:18;99866.84;;;18.11;58.92
77027;BME280;65956;52.986;17.490;2023-05-16T09:38:44;99866.38;;;18.25;59.28
77027;BME280;65956;52.986;17.490;2023-05-16T09:41:10;99874.50;;;18.33;58.65
77027;BME280;65956;52.986;17.490;2023-05-16T09:43:40;99885.36;;;18.34;57.39
77027;BME280;65956;52.986;17.490;2023-05-16T09:46:10;99883.19;;;18.30;56.54
77027;BME280;65956;52.986;17.490;2023-05-16T09:48:48;99885.59;;;18.23;56.18
77027;BME280;65956;52.986;17.490;2023-05-16T09:51:21;99890.17;;;18.00;57.08
77027;BME280;65956;52.986;17.490;2023-05-16T09:53:47;99894.56;;;17.86;58.35
77027;BME280;65956;52.986;17.490;2023-05-16T09:56:14;99894.03;;;18.05;57.82
77027;BME280;65956;52.986;17.490;2023-05-16T09:58:42;99893.96;;;18.16;57.43
77027;BME280;65956;52.986;17.490;2023-05-16T10:01:09;99899.53;;;18.19;56.90
77027;BME280;65956;52.986;17.490;2023-05-16T10:03:40;99901.02;;;18.33;56.95
77027;BME280;65956;52.986;17.490;2023-05-16T10:06:07;99903.92;;;18.52;56.63
77027;BME280;65956;52.986;17.490;2023-05-16T10:08:35;99901.38;;;18.73;56.11
77027;BME280;65956;52.986;17.490;2023-05-16T10:11:03;99905.92;;;18.83;55.48
77027;BME280;65956;52.986;17.490;2023-05-16T10:13:31;99907.36;;;18.80;54.44
77027;BME280;65956;52.986;17.490;2023-05-16T10:16:02;99911.61;;;18.73;55.59
77027;BME280;65956;52.986;17.490;2023-05-16T10:18:32;99924.66;;;18.67;55.90
77027;BME280;65956;52.986;17.490;2023-05-16T10:21:18;99929.54;;;18.58;55.63
77027;BME280;65956;52.986;17.490;2023-05-16T10:23:48;99930.69;;;18.53;56.14
77027;BME280;65956;52.986;17.490;2023-05-16T10:26:16;99930.34;;;18.55;56.77
77027;BME280;65956;52.986;17.490;2023-05-16T10:28:42;99937.35;;;18.70;55.88
77027;BME280;65956;52.986;17.490;2023-05-16T10:31:09;99935.76;;;18.90;55.26
77027;BME280;65956;52.986;17.490;2023-05-16T10:33:36;99931.85;;;18.95;54.52
77027;BME280;65956;52.986;17.490;2023-05-16T10:36:02;99939.34;;;18.99;54.65
77027;BME280;65956;52.986;17.490;2023-05-16T10:38:30;99938.88;;;19.19;54.82
77027;BME280;65956;52.986;17.490;2023-05-16T10:40:57;99935.80;;;19.46;54.61
77027;BME280;65956;52.986;17.490;2023-05-16T10:43:25;99934.39;;;19.85;53.34
77027;BME280;65956;52.986;17.490;2023-05-16T10:46:06;99932.06;;;19.88;53.93
77027;BME280;65956;52.986;17.490;2023-05-16T10:48:34;99928.33;;;19.85;53.91
77027;BME280;65956;52.986;17.490;2023-05-16T10:51:02;99927.33;;;19.49;52.48
77027;BME280;65956;52.986;17.490;2023-05-16T10:53:33;99934.11;;;19.16;53.91
77027;BME280;65956;52.986;17.490;2023-05-16T11:01:32;99946.01;;;19.28;54.27
77027;BME280;65956;52.986;17.490;2023-05-16T11:06:26;99953.77;;;19.21;55.17
77027;BME280;65956;52.986;17.490;2023-05-16T11:11:40;99959.73;;;19.35;55.64
77027;BME280;65956;52.986;17.490;2023-05-16T11:14:07;99961.43;;;20.13;53.69
77027;BME280;65956;52.986;17.490;2023-05-16T11:16:35;99962.36;;;20.69;51.95
77027;BME280;65956;52.986;17.490;2023-05-16T11:19:05;99957.67;;;20.82;49.97
77027;BME280;65956;52.986;17.490;2023-05-16T11:22:03;99958.09;;;20.46;49.32
77027;BME280;65956;52.986;17.490;2023-05-16T11:24:27;99974.36;;;20.19;50.34
77027;BME280;65956;52.986;17.490;2023-05-16T11:26:54;99971.08;;;19.91;51.31
77027;BME280;65956;52.986;17.490;2023-05-16T11:29:20;99967.45;;;19.63;53.20
77027;BME280;65956;52.986;17.490;2023-05-16T11:31:47;99976.98;;;19.35;54.16
77027;BME280;65956;52.986;17.490;2023-05-16T11:34:12;99979.83;;;19.07;55.34
77027;BME280;65956;52.986;17.490;2023-05-16T11:36:39;99979.15;;;18.87;55.03
77027;BME280;65956;52.986;17.490;2023-05-16T11:39:06;99980.80;;;18.73;55.45
77027;BME280;65956;52.986;17.490;2023-05-16T11:41:34;99984.61;;;18.84;55.88
77027;BME280;65956;52.986;17.490;2023-05-16T11:43:59;99985.14;;;18.93;55.73
77027;BME280;65956;52.986;17.490;2023-05-16T11:46:25;99990.92;;;18.91;55.94
77027;BME280;65956;52.986;17.490;2023-05-16T11:48:55;99988.14;;;18.88;55.16
77027;BME280;65956;52.986;17.490;2023-05-16T11:51:21;99990.16;;;18.82;54.43
77027;BME280;65956;52.986;17.490;2023-05-16T11:53:48;99997.23;;;18.75;55.33
77027;BME280;65956;52.986;17.490;2023-05-16T11:56:19;100004.23;;;18.60;56.35
77027;BME280;65956;52.986;17.490;2023-05-16T11:58:47;100010.69;;;18.26;57.78
77027;BME280;65956;52.986;17.490;2023-05-16T12:01:13;100014.91;;;17.89;58.54
77027;BME280;65956;52.986;17.490;2023-05-16T12:03:39;100028.64;;;17.78;59.49
77027;BME280;65956;52.986;17.490;2023-05-16T12:06:05;100041.74;;;17.74;60.15
77027;BME280;65956;52.986;17.490;2023-05-16T12:08:31;100036.77;;;17.83;59.41
77027;BME280;65956;52.986;17.490;2023-05-16T12:10:59;100033.02;;;18.12;58.94
77027;BME280;65956;52.986;17.490;2023-05-16T12:13:25;100037.14;;;18.51;57.61
77027;BME280;65956;52.986;17.490;2023-05-16T12:15:51;100040.66;;;18.54;56.78
77027;BME280;65956;52.986;17.490;2023-05-16T12:18:18;100043.85;;;18.34;57.31
77027;BME280;65956;52.986;17.490;2023-05-16T12:20:46;100046.65;;;18.17;57.52
77027;BME280;65956;52.986;17.490;2023-05-16T12:23:13;100048.95;;;18.05;57.73
77027;BME280;65956;52.986;17.490;2023-05-16T12:25:44;100050.47;;;18.01;57.85
77027;BME280;65956;52.986;17.490;2023-05-16T12:28:12;100054.55;;;18.03;58.51
77027;BME280;65956;52.986;17.490;2023-05-16T12:30:41;100053.89;;;18.13;59.06
77027;BME280;65956;52.986;17.490;2023-05-16T12:33:10;100057.15;;;18.20;59.05
77027;BME280;65956;52.986;17.490;2023-05-16T12:35:39;100058.45;;;18.19;58.09
77027;BME280;65956;52.986;17.490;2023-05-16T12:38:07;100058.73;;;18.26;57.76
77027;BME280;65956;52.986;17.490;2023-05-16T12:40:35;100062.48;;;18.90;56.84
77027;BME280;65956;52.986;17.490;2023-05-16T12:43:01;100067.21;;;19.86;55.07
77027;BME280;65956;52.986;17.490;2023-05-16T12:45:28;100064.67;;;20.03;53.39
77027;BME280;65956;52.986;17.490;2023-05-16T12:47:54;100070.77;;;20.54;50.37
77027;BME280;65956;52.986;17.490;2023-05-16T12:50:21;100072.20;;;21.29;49.97
77027;BME280;65956;52.986;17.490;2023-05-16T12:52:52;100066.66;;;21.79;48.45
77027;BME280;65956;52.986;17.490;2023-05-16T12:55:20;100063.86;;;22.62;46.55
77027;BME280;65956;52.986;17.490;2023-05-16T12:57:47;100051.89;;;23.79;44.97
77027;BME280;65956;52.986;17.490;2023-05-16T13:00:15;100057.99;;;25.01;42.85
77027;BME280;65956;52.986;17.490;2023-05-16T13:02:43;100060.64;;;25.66;39.81
77027;BME280;65956;52.986;17.490;2023-05-16T13:05:10;100052.06;;;25.94;37.69
77027;BME280;65956;52.986;17.490;2023-05-16T13:07:37;100058.52;;;25.96;38.79
77027;BME280;65956;52.986;17.490;2023-05-16T13:10:07;100062.48;;;26.49;38.01